createdAt,value
2024-05-09T00:02:01.104Z,10.82
2024-05-09T00:07:05.614Z,10.70
2024-05-09T00:12:12.715Z,10.88
2024-05-09T00:17:19.532Z,10.87
2024-05-09T00:22:23.950Z,10.99
2024-05-09T00:27:30.855Z,11.28
2024-05-09T00:32:38.400Z,11.44
2024-05-09T00:37:42.923Z,11.48
2024-05-09T00:42:49.884Z,11.22
2024-05-09T00:47:54.648Z,11.38
2024-05-09T00:52:59.535Z,11.51
2024-05-09T00:58:09.667Z,10.98
2024-05-09T01:03:14.615Z,10.62
2024-05-09T01:08:19.364Z,10.57
2024-05-09T01:13:26.484Z,10.90
2024-05-09T01:18:32.920Z,11.39
2024-05-09T01:23:40.059Z,11.31
2024-05-09T01:28:44.449Z,11.51
2024-05-09T01:33:48.927Z,11.25
2024-05-09T01:38:55.998Z,11.47
2024-05-09T01:44:01.009Z,11.61
2024-05-09T01:49:05.510Z,11.37
2024-05-09T01:54:12.704Z,11.17
2024-05-09T01:59:17.965Z,10.51
2024-05-09T02:04:22.612Z,11.27
2024-05-09T02:09:29.890Z,10.80
2024-05-09T02:14:34.305Z,11.00
2024-05-09T02:19:38.571Z,10.97
2024-05-09T02:24:45.486Z,11.05
2024-05-09T02:29:49.934Z,10.84
2024-05-09T02:34:54.384Z,11.04
2024-05-09T02:40:01.316Z,10.80
2024-05-09T02:45:05.981Z,9.47
2024-05-09T02:50:13.450Z,10.21
2024-05-09T02:55:23.127Z,10.44
2024-05-09T03:00:36.626Z,10.27
2024-05-09T03:05:44.956Z,10.30
2024-05-09T03:10:52.514Z,10.08
2024-05-09T03:15:56.946Z,8.58
2024-05-09T03:21:01.522Z,8.75
2024-05-09T03:26:15.272Z,8.40
2024-05-09T03:31:24.052Z,9.37
2024-05-09T03:36:28.526Z,9.82
2024-05-09T03:41:35.635Z,10.06
2024-05-09T03:46:43.133Z,10.19
2024-05-09T03:51:47.535Z,10.35
2024-05-09T03:56:54.653Z,10.22
2024-05-09T04:01:59.139Z,10.03
2024-05-09T04:07:03.747Z,8.79
2024-05-09T04:12:12.525Z,8.34
2024-05-09T04:17:17.088Z,9.09
2024-05-09T04:22:21.403Z,9.43
2024-05-09T04:27:28.457Z,9.54
2024-05-09T04:32:33.004Z,9.06
2024-05-09T04:37:37.624Z,9.68
2024-05-09T04:42:45.599Z,9.92
2024-05-09T04:47:50.493Z,10.23
2024-05-09T04:52:56.618Z,10.36
2024-05-09T04:58:03.765Z,9.45
2024-05-09T05:03:13.192Z,10.03
2024-05-09T05:08:20.607Z,10.53
2024-05-09T05:13:27.620Z,10.98
2024-05-09T05:18:32.357Z,11.17
2024-05-09T05:23:37.159Z,11.37
2024-05-09T05:28:44.349Z,11.14
2024-05-09T05:33:51.072Z,11.29
2024-05-09T05:38:55.803Z,11.85
2024-05-09T05:44:03.095Z,11.89
2024-05-09T05:49:07.742Z,11.95
2024-05-09T05:54:12.386Z,12.27
2024-05-09T05:59:19.518Z,12.16
2024-05-09T06:04:23.937Z,12.17
2024-05-09T06:09:28.130Z,12.19
2024-05-09T06:14:35.085Z,12.44
2024-05-09T06:19:39.585Z,12.97
2024-05-09T06:24:44.115Z,13.03
2024-05-09T06:29:50.933Z,13.08
2024-05-09T06:34:55.338Z,13.05
2024-05-09T06:39:59.779Z,13.42
2024-05-09T06:45:07.189Z,13.94
2024-05-09T06:50:20.187Z,14.05
2024-05-09T06:55:28.448Z,13.89
2024-05-09T07:00:39.512Z,14.01
2024-05-09T07:05:46.802Z,14.23
2024-05-09T07:10:52.590Z,14.12
2024-05-09T07:15:59.743Z,13.91
2024-05-09T07:21:04.164Z,14.19
2024-05-09T07:26:08.584Z,14.28
2024-05-09T07:31:15.997Z,14.40
2024-05-09T07:36:20.371Z,14.61
2024-05-09T07:41:24.700Z,14.87
2024-05-09T07:47:37.157Z,15.39
2024-05-09T07:53:21.832Z,15.33
2024-05-09T07:57:20.882Z,15.29
2024-05-09T08:02:28.061Z,15.72
2024-05-09T08:07:35.175Z,15.63
2024-05-09T08:12:39.666Z,15.66
2024-05-09T08:17:46.620Z,15.76
2024-05-09T08:22:50.987Z,16.12
2024-05-09T08:27:55.463Z,16.54
2024-05-09T08:33:02.991Z,16.91
2024-05-09T08:38:09.364Z,16.88
2024-05-09T08:43:14.481Z,17.17
2024-05-09T08:48:24.270Z,17.19
2024-05-09T08:53:29.170Z,17.31
2024-05-09T08:58:35.050Z,17.54
2024-05-09T09:03:43.147Z,17.71
2024-05-09T09:08:48.239Z,17.63
2024-05-09T09:13:52.782Z,18.48
2024-05-09T09:19:00.275Z,18.31
2024-05-09T09:24:06.055Z,18.24
2024-05-09T09:29:11.824Z,17.98
2024-05-09T09:34:18.988Z,18.17
2024-05-09T09:39:25.456Z,18.60
2024-05-09T09:44:30.194Z,18.76
2024-05-09T09:49:40.160Z,18.32
2024-05-09T09:54:47.563Z,19.00
2024-05-09T09:59:53.732Z,19.40
2024-05-09T10:05:03.322Z,19.83
2024-05-09T10:10:11.031Z,19.83
2024-05-09T10:15:15.537Z,19.72
2024-05-09T10:20:28.129Z,20.91
2024-05-09T10:25:37.260Z,22.70
2024-05-09T10:30:45.273Z,24.67
2024-05-09T10:35:56.509Z,27.39
2024-05-09T10:41:02.679Z,28.08
2024-05-09T10:46:08.004Z,26.62
2024-05-09T10:51:16.288Z,25.40
2024-05-09T10:56:20.597Z,23.72
2024-05-09T11:01:25.658Z,25.11
2024-05-09T11:06:35.177Z,23.77
2024-05-09T11:11:39.851Z,25.43
2024-05-09T11:16:45.144Z,29.22
2024-05-09T11:21:56.296Z,28.30
2024-05-09T11:27:08.084Z,29.02
2024-05-09T11:32:16.493Z,28.89
2024-05-09T11:37:23.792Z,28.81
2024-05-09T11:42:28.384Z,27.09
2024-05-09T11:47:33.270Z,27.18
2024-05-09T11:52:40.964Z,25.55
2024-05-09T11:57:45.504Z,27.32
2024-05-09T12:02:52.763Z,28.89
2024-05-09T12:07:59.934Z,27.32
2024-05-09T12:13:06.435Z,28.46
2024-05-09T12:18:11.869Z,29.03
2024-05-09T12:23:18.942Z,26.83
2024-05-09T12:28:26.477Z,28.38
2024-05-09T12:33:30.992Z,25.40
2024-05-09T12:38:38.296Z,24.66
2024-05-09T12:43:42.931Z,26.45
2024-05-09T12:48:47.894Z,26.86
2024-05-09T12:53:58.061Z,27.00
2024-05-09T12:59:02.865Z,27.62
2024-05-09T13:04:07.607Z,26.14
2024-05-09T13:09:16.583Z,26.81
2024-05-09T13:14:20.926Z,24.74
2024-05-09T13:19:25.518Z,25.10
2024-05-09T13:24:32.756Z,26.20
2024-05-09T13:29:39.125Z,24.96
2024-05-09T13:34:44.772Z,26.29
2024-05-09T13:39:52.251Z,26.56
2024-05-09T13:44:56.700Z,26.55
2024-05-09T13:50:02.000Z,26.07
2024-05-09T13:55:12.632Z,25.96
2024-05-09T14:00:27.440Z,24.78
2024-05-09T14:05:41.927Z,25.29
2024-05-09T14:10:50.895Z,24.30
2024-05-09T14:15:55.824Z,24.98
2024-05-09T14:21:00.376Z,24.67
2024-05-09T14:26:07.954Z,25.63
2024-05-09T14:31:12.455Z,25.71
2024-05-09T14:36:17.378Z,25.26
2024-05-09T14:41:24.537Z,25.71
2024-05-09T14:46:29.085Z,25.33
2024-05-09T14:51:33.546Z,24.76
2024-05-09T14:56:44.042Z,26.01
2024-05-09T15:01:51.592Z,26.99
2024-05-09T15:06:56.662Z,26.31
2024-05-09T15:12:09.321Z,27.23
2024-05-09T15:17:13.705Z,26.47
2024-05-09T15:22:18.378Z,25.83
2024-05-09T15:27:25.412Z,25.25
2024-05-09T15:32:29.960Z,25.16
2024-05-09T15:37:34.554Z,24.52
2024-05-09T15:42:43.233Z,23.86
2024-05-09T15:47:48.101Z,23.61
2024-05-09T15:52:52.533Z,23.62
2024-05-09T15:57:59.488Z,23.60
2024-05-09T16:03:04.031Z,23.33
2024-05-09T16:08:09.163Z,22.62
2024-05-09T16:13:17.197Z,22.30
2024-05-09T16:18:22.287Z,22.49
2024-05-09T16:23:26.636Z,23.06
2024-05-09T16:28:36.783Z,23.29
2024-05-09T16:33:44.342Z,23.30
2024-05-09T16:38:48.791Z,22.85
2024-05-09T16:43:58.054Z,22.49
2024-05-09T16:49:02.805Z,22.36
2024-05-09T16:54:07.256Z,22.45
2024-05-09T16:59:14.483Z,22.33
2024-05-09T17:04:19.155Z,22.08
2024-05-09T17:09:24.453Z,22.03
2024-05-09T17:14:31.528Z,22.30
2024-05-09T17:24:43.357Z,21.62
2024-05-09T17:29:50.604Z,21.27
2024-05-09T17:34:54.958Z,21.29
2024-05-09T17:39:59.425Z,21.45
2024-05-09T17:45:06.729Z,21.28
2024-05-09T17:50:15.070Z,21.30
2024-05-09T17:55:25.588Z,21.05
2024-05-09T18:00:39.464Z,21.17
2024-05-09T18:05:46.567Z,20.88
2024-05-09T18:10:52.723Z,21.12
2024-05-09T18:16:03.434Z,20.43
2024-05-09T18:21:08.221Z,19.81
2024-05-09T18:26:12.919Z,19.19
2024-05-09T18:31:20.327Z,18.80
2024-05-09T18:36:25.532Z,17.98
2024-05-09T18:41:29.855Z,18.70
2024-05-09T18:46:36.876Z,17.43
2024-05-09T18:51:41.674Z,16.44
2024-05-09T18:56:46.169Z,16.00
2024-05-09T19:01:53.285Z,16.19
2024-05-09T19:06:57.995Z,16.48
2024-05-09T19:12:06.337Z,16.01
2024-05-09T19:17:14.544Z,16.04
2024-05-09T19:22:19.167Z,15.06
2024-05-09T19:27:24.476Z,14.43
2024-05-09T19:32:31.850Z,14.40
2024-05-09T19:37:36.317Z,14.32
2024-05-09T19:42:40.635Z,13.80
2024-05-09T19:47:47.567Z,14.73
2024-05-09T19:52:52.125Z,13.51
2024-05-09T19:58:06.142Z,13.56
2024-05-09T20:03:15.256Z,13.99
2024-05-09T20:08:20.344Z,13.66
2024-05-09T20:13:24.624Z,13.36
2024-05-09T20:18:31.770Z,13.06
2024-05-09T20:23:36.305Z,14.14
2024-05-09T20:28:41.564Z,14.28
2024-05-09T20:33:48.566Z,13.17
2024-05-09T20:38:53.052Z,13.27
2024-05-09T20:44:00.560Z,13.79
2024-05-09T20:49:07.702Z,14.22
2024-05-09T20:54:12.450Z,12.59
2024-05-09T20:59:17.040Z,12.62
2024-05-09T21:04:24.244Z,11.91
2024-05-09T21:09:28.758Z,12.01
2024-05-09T21:14:33.085Z,11.56
2024-05-09T21:19:39.982Z,11.76
2024-05-09T21:24:44.350Z,11.73
2024-05-09T21:29:48.590Z,12.21
2024-05-09T21:34:55.514Z,12.79
2024-05-09T21:40:00.983Z,12.24
2024-05-09T21:45:06.143Z,12.10
2024-05-09T21:50:22.172Z,12.38
2024-05-09T21:55:28.214Z,12.38
2024-05-09T22:00:37.577Z,12.63
2024-05-09T22:05:45.916Z,12.91
2024-05-09T22:10:51.016Z,11.41
2024-05-09T22:15:58.513Z,12.51
2024-05-09T22:21:05.471Z,11.33
2024-05-09T22:26:10.485Z,11.80
2024-05-09T22:31:14.779Z,12.39
2024-05-09T22:36:21.719Z,12.25
2024-05-09T22:41:26.101Z,12.13
2024-05-09T22:46:30.568Z,11.77
2024-05-09T22:51:37.827Z,11.27
2024-05-09T22:56:43.001Z,11.48
2024-05-09T23:01:47.613Z,11.67
2024-05-09T23:06:55.180Z,11.50
2024-05-09T23:11:59.836Z,10.88
2024-05-09T23:17:04.265Z,10.02
2024-05-09T23:22:11.386Z,10.32
2024-05-09T23:27:17.438Z,10.62
2024-05-09T23:32:22.235Z,11.30
2024-05-09T23:37:29.382Z,10.21
2024-05-09T23:42:33.957Z,10.98
2024-05-09T23:47:38.626Z,10.72
2024-05-09T23:52:45.590Z,10.74
2024-05-09T23:57:50.037Z,10.56
